createdAt,value
2023-02-14T00:01:10.649Z,32.38
2023-02-14T00:03:37.834Z,32.03
2023-02-14T00:06:13.419Z,30.50
2023-02-14T00:08:44.424Z,31.67
2023-02-14T00:11:12.869Z,34.47
2023-02-14T00:13:39.786Z,35.60
2023-02-14T00:16:07.233Z,31.23
2023-02-14T00:18:52.565Z,31.30
2023-02-14T00:21:19.696Z,35.38
2023-02-14T00:23:46.590Z,34.20
2023-02-14T00:26:15.268Z,30.63
2023-02-14T00:28:43.508Z,34.55
2023-02-14T00:31:10.929Z,34.60
2023-02-14T00:33:38.257Z,33.17
2023-02-14T00:36:07.739Z,31.67
2023-02-14T00:41:03.524Z,33.08
2023-02-14T00:43:31.604Z,36.92
2023-02-14T00:45:58.573Z,31.17
2023-02-14T00:48:25.601Z,33.08
2023-02-14T00:50:52.617Z,34.20
2023-02-14T00:53:19.581Z,33.15
2023-02-14T00:55:47.087Z,34.05
2023-02-14T00:58:15.112Z,32.38
2023-02-14T01:00:42.156Z,29.13
2023-02-14T01:03:09.170Z,33.65
2023-02-14T01:05:36.039Z,35.60
2023-02-14T01:08:05.023Z,32.22
2023-02-14T01:10:32.387Z,32.33
2023-02-14T01:12:59.588Z,31.63
2023-02-14T01:15:28.460Z,31.48
2023-02-14T01:17:55.375Z,32.20
2023-02-14T01:20:22.490Z,31.10
2023-02-14T01:22:49.618Z,33.80
2023-02-14T01:25:16.547Z,32.30
2023-02-14T01:27:43.815Z,31.48
2023-02-14T01:30:11.655Z,32.33
2023-02-14T01:32:38.533Z,35.28
2023-02-14T01:35:05.685Z,32.42
2023-02-14T01:37:32.654Z,33.13
2023-02-14T01:39:59.818Z,30.70
2023-02-14T01:42:26.855Z,35.65
2023-02-14T01:44:56.884Z,32.50
2023-02-14T01:47:24.621Z,36.90
2023-02-14T01:49:59.470Z,38.00
2023-02-14T01:52:38.214Z,34.42
2023-02-14T01:55:10.065Z,34.10
2023-02-14T01:57:45.334Z,34.67
2023-02-14T02:00:33.355Z,31.80
2023-02-14T02:03:01.782Z,31.33
2023-02-14T02:05:28.794Z,33.75
2023-02-14T02:08:00.426Z,34.00
2023-02-14T02:10:28.377Z,34.10
2023-02-14T02:12:55.615Z,36.97
2023-02-14T02:15:27.000Z,33.38
2023-02-14T02:18:26.470Z,32.38
2023-02-14T02:21:42.807Z,37.70
2023-02-14T02:24:28.456Z,35.28
2023-02-14T02:27:35.711Z,35.67
2023-02-14T02:30:27.786Z,36.28
2023-02-14T02:33:24.028Z,39.75
2023-02-14T02:35:50.950Z,36.35
2023-02-14T02:38:26.673Z,33.67
2023-02-14T02:41:01.900Z,35.67
2023-02-14T02:43:33.148Z,38.13
2023-02-14T02:46:27.749Z,34.72
2023-02-14T02:49:52.222Z,36.65
2023-02-14T02:52:51.653Z,37.17
2023-02-14T02:58:29.960Z,37.05
2023-02-14T03:00:59.824Z,34.60
2023-02-14T03:03:48.937Z,38.33
2023-02-14T03:06:15.775Z,40.30
2023-02-14T03:08:45.318Z,37.35
2023-02-14T03:11:13.517Z,34.13
2023-02-14T03:14:00.993Z,31.85
2023-02-14T03:17:09.655Z,35.65
2023-02-14T03:20:17.793Z,36.58
2023-02-14T03:23:37.476Z,32.45
2023-02-14T03:26:21.735Z,31.75
2023-02-14T03:29:17.160Z,33.33
2023-02-14T03:32:00.633Z,33.50
2023-02-14T03:34:37.200Z,33.17
2023-02-14T03:37:15.711Z,31.73
2023-02-14T03:39:54.785Z,33.30
2023-02-14T03:42:27.690Z,34.40
2023-02-14T03:44:56.791Z,32.47
2023-02-14T03:47:28.801Z,34.20
2023-02-14T03:50:01.887Z,33.63
2023-02-14T03:52:33.730Z,36.78
2023-02-14T03:55:23.009Z,33.10
2023-02-14T04:00:20.875Z,34.42
2023-02-14T04:02:59.368Z,34.67
2023-02-14T04:05:28.145Z,32.13
2023-02-14T04:07:58.109Z,33.00
2023-02-14T04:10:26.500Z,30.48
2023-02-14T04:12:54.299Z,31.90
2023-02-14T04:15:21.446Z,34.15
2023-02-14T04:18:07.040Z,32.70
2023-02-14T04:20:34.395Z,33.63
2023-02-14T04:23:03.326Z,33.15
2023-02-14T04:25:30.697Z,30.13
2023-02-14T04:27:57.692Z,28.88
2023-02-14T04:30:24.818Z,29.42
2023-02-14T04:32:51.990Z,33.53
2023-02-14T04:35:18.942Z,32.92
2023-02-14T04:37:45.992Z,33.55
2023-02-14T04:40:16.929Z,26.27
2023-02-14T04:42:45.238Z,31.77
2023-02-14T04:45:12.771Z,29.85
2023-02-14T04:47:39.977Z,28.73
2023-02-14T04:50:07.294Z,28.88
2023-02-14T04:52:34.307Z,31.92
2023-02-14T04:55:01.263Z,27.95
2023-02-14T04:57:30.760Z,28.40
2023-02-14T04:59:57.739Z,31.77
2023-02-14T05:02:24.745Z,29.95
2023-02-14T05:04:51.699Z,32.80
2023-02-14T05:07:18.678Z,29.45
2023-02-14T05:09:45.514Z,23.67
2023-02-14T05:12:12.492Z,28.88
2023-02-14T05:14:39.343Z,27.92
2023-02-14T05:17:06.422Z,31.58
2023-02-14T05:19:33.771Z,26.60
2023-02-14T05:22:00.652Z,30.40
2023-02-14T05:24:27.506Z,26.45
2023-02-14T05:26:54.547Z,28.95
2023-02-14T05:29:21.562Z,26.73
2023-02-14T05:31:49.701Z,27.23
2023-02-14T05:34:16.740Z,25.08
2023-02-14T05:36:43.676Z,25.20
2023-02-14T05:39:14.514Z,30.42
2023-02-14T05:41:41.840Z,30.33
2023-02-14T05:44:08.700Z,26.45
2023-02-14T05:46:35.616Z,27.63
2023-02-14T05:49:03.574Z,29.15
2023-02-14T05:51:30.700Z,29.20
2023-02-14T05:54:00.049Z,31.30
2023-02-14T05:58:53.915Z,28.13
2023-02-14T06:01:20.916Z,27.67
2023-02-14T06:03:47.780Z,27.38
2023-02-14T06:06:14.837Z,28.38
2023-02-14T06:08:41.896Z,31.30
2023-02-14T06:11:08.928Z,29.27
2023-02-14T06:13:35.915Z,28.95
2023-02-14T06:16:05.031Z,28.10
2023-02-14T06:18:31.943Z,32.50
2023-02-14T06:20:59.284Z,30.15
2023-02-14T06:23:26.654Z,27.27
2023-02-14T06:25:53.616Z,34.60
2023-02-14T06:28:20.576Z,33.13
2023-02-14T06:30:47.575Z,30.50
2023-02-14T06:33:14.921Z,31.10
2023-02-14T06:35:41.964Z,34.80
2023-02-14T06:38:08.943Z,33.25
2023-02-14T06:40:36.102Z,30.10
2023-02-14T06:43:03.283Z,40.42
2023-02-14T06:45:30.195Z,35.35
2023-02-14T06:47:57.300Z,32.63
2023-02-14T06:50:24.214Z,33.72
2023-02-14T06:52:51.632Z,31.88
2023-02-14T06:55:19.240Z,30.48
2023-02-14T06:57:46.271Z,31.80
2023-02-14T07:00:14.909Z,31.42
2023-02-14T07:02:42.172Z,31.73
2023-02-14T07:05:09.159Z,29.70
2023-02-14T07:07:36.175Z,31.15
2023-02-14T07:10:03.386Z,27.25
2023-02-14T07:12:30.478Z,32.17
2023-02-14T07:14:57.402Z,32.25
2023-02-14T07:17:24.820Z,30.77
2023-02-14T07:19:51.647Z,26.83
2023-02-14T07:22:18.529Z,29.92
2023-02-14T07:24:46.657Z,27.13
2023-02-14T07:27:13.639Z,26.70
2023-02-14T07:29:40.494Z,32.40
2023-02-14T07:32:07.554Z,30.27
2023-02-14T07:34:34.929Z,29.27
2023-02-14T07:37:01.859Z,34.65
2023-02-14T07:39:28.935Z,37.58
2023-02-14T07:41:55.849Z,32.05
2023-02-14T07:44:26.264Z,34.88
2023-02-14T07:49:37.786Z,30.75
2023-02-14T07:52:05.251Z,34.85
2023-02-14T07:54:32.269Z,35.30
2023-02-14T07:56:59.221Z,32.97
2023-02-14T07:59:26.264Z,33.13
2023-02-14T08:01:53.474Z,37.97
2023-02-14T08:04:21.428Z,36.85
2023-02-14T08:06:48.522Z,32.13
2023-02-14T08:09:24.685Z,38.70
2023-02-14T08:12:12.062Z,37.47
2023-02-14T08:14:39.164Z,33.30
2023-02-14T08:17:07.575Z,31.58
2023-02-14T08:19:34.572Z,30.83
2023-02-14T08:22:01.415Z,36.08
2023-02-14T08:24:28.878Z,34.60
2023-02-14T08:26:55.883Z,33.83
2023-02-14T08:29:23.293Z,32.67
2023-02-14T08:31:50.512Z,30.38
2023-02-14T08:34:17.637Z,32.47
2023-02-14T08:36:44.577Z,35.70
2023-02-14T08:39:11.989Z,34.63
2023-02-14T08:41:39.444Z,34.70
2023-02-14T08:44:06.519Z,29.65
2023-02-14T08:46:33.455Z,29.30
2023-02-14T08:49:00.534Z,34.13
2023-02-14T08:51:27.526Z,32.45
2023-02-14T08:53:55.915Z,34.50
2023-02-14T08:56:22.937Z,31.67
2023-02-14T08:58:53.147Z,32.08
2023-02-14T09:01:20.601Z,30.05
2023-02-14T09:03:47.798Z,29.20
2023-02-14T09:06:17.552Z,34.10
2023-02-14T09:08:45.534Z,29.55
2023-02-14T09:11:18.977Z,27.90
2023-02-14T09:13:47.128Z,29.20
2023-02-14T09:16:17.375Z,32.10
2023-02-14T09:18:46.497Z,30.48
2023-02-14T09:21:16.879Z,30.20
2023-02-14T09:23:43.848Z,30.75
2023-02-14T09:26:13.517Z,30.65
2023-02-14T09:28:41.139Z,28.98
2023-02-14T09:31:11.299Z,33.20
2023-02-14T09:33:57.462Z,29.58
2023-02-14T09:36:43.288Z,33.30
2023-02-14T09:39:10.235Z,34.20
2023-02-14T09:42:01.647Z,34.08
2023-02-14T09:44:37.336Z,37.55
2023-02-14T09:47:21.349Z,31.63
2023-02-14T09:49:50.748Z,36.55
2023-02-14T09:54:53.510Z,44.78
2023-02-14T09:57:23.548Z,37.85
2023-02-14T10:00:11.365Z,38.17
2023-02-14T10:02:57.442Z,43.90
2023-02-14T10:05:28.843Z,38.53
2023-02-14T10:07:57.616Z,40.78
2023-02-14T10:10:33.530Z,42.85
2023-02-14T10:13:35.988Z,36.50
2023-02-14T10:16:09.615Z,30.77
2023-02-14T10:19:11.381Z,34.63
2023-02-14T10:21:45.992Z,27.25
2023-02-14T10:24:21.192Z,28.42
2023-02-14T10:26:50.388Z,33.90
2023-02-14T10:29:19.194Z,30.35
2023-02-14T10:32:02.893Z,30.83
2023-02-14T10:34:29.929Z,29.13
2023-02-14T10:37:34.619Z,31.80
2023-02-14T10:40:19.991Z,31.10
2023-02-14T10:43:19.034Z,24.35
2023-02-14T10:45:58.247Z,25.23
2023-02-14T10:49:13.622Z,25.48
2023-02-14T10:52:08.267Z,26.80
2023-02-14T10:54:45.860Z,26.15
2023-02-14T10:57:28.396Z,29.88
2023-02-14T11:00:17.445Z,25.40
2023-02-14T11:02:47.831Z,28.55
2023-02-14T11:05:24.332Z,26.25
2023-02-14T11:07:52.726Z,25.60
2023-02-14T11:10:26.483Z,23.83
2023-02-14T11:12:55.746Z,24.85
2023-02-14T11:15:32.495Z,27.92
2023-02-14T11:18:20.752Z,24.15
2023-02-14T11:21:01.711Z,24.13
2023-02-14T11:23:36.958Z,23.40
2023-02-14T11:26:08.934Z,20.88
2023-02-14T11:28:37.022Z,21.00
2023-02-14T11:31:04.585Z,29.15
2023-02-14T11:33:39.456Z,21.77
2023-02-14T11:36:12.965Z,25.73
2023-02-14T11:38:41.306Z,21.63
2023-02-14T11:41:12.110Z,22.00
2023-02-14T11:43:39.052Z,21.85
2023-02-14T11:46:14.310Z,24.63
2023-02-14T11:49:06.953Z,17.50
2023-02-14T11:51:37.154Z,26.33
2023-02-14T11:54:06.084Z,22.85
2023-02-14T11:56:53.908Z,21.38
2023-02-14T11:59:43.177Z,24.65
2023-02-14T12:05:00.726Z,15.40
2023-02-14T12:07:36.908Z,21.83
2023-02-14T12:10:26.051Z,21.50
2023-02-14T12:12:58.219Z,17.45
2023-02-14T12:15:27.306Z,19.35
2023-02-14T12:18:31.850Z,21.75
2023-02-14T12:21:23.712Z,18.08
2023-02-14T12:24:20.676Z,22.30
2023-02-14T12:26:57.074Z,22.13
2023-02-14T12:29:40.018Z,21.55
2023-02-14T12:32:34.001Z,21.80
2023-02-14T12:35:03.737Z,16.60
2023-02-14T12:37:56.026Z,18.35
2023-02-14T12:40:36.686Z,21.70
2023-02-14T12:43:34.412Z,17.48
2023-02-14T12:46:33.143Z,17.33
2023-02-14T12:49:27.033Z,25.27
2023-02-14T12:52:09.342Z,18.98
2023-02-14T12:54:51.648Z,15.57
2023-02-14T12:57:30.649Z,19.85
2023-02-14T13:00:09.842Z,16.33
2023-02-14T13:02:57.227Z,20.08
2023-02-14T13:05:27.014Z,16.95
2023-02-14T13:08:13.506Z,21.13
2023-02-14T13:10:40.368Z,24.30
2023-02-14T13:13:24.706Z,19.13
2023-02-14T13:16:15.701Z,20.52
2023-02-14T13:19:13.170Z,19.20
2023-02-14T13:21:41.939Z,20.77
2023-02-14T13:24:23.157Z,21.98
2023-02-14T13:26:55.528Z,19.80
2023-02-14T13:29:32.656Z,24.20
2023-02-14T13:32:02.603Z,20.80
2023-02-14T13:34:37.054Z,24.10
2023-02-14T13:37:07.898Z,22.23
2023-02-14T13:39:44.128Z,20.73
2023-02-14T13:42:12.040Z,19.98
2023-02-14T13:44:38.822Z,19.58
2023-02-14T13:47:08.632Z,20.10
2023-02-14T13:49:40.564Z,17.58
2023-02-14T13:52:09.922Z,24.17
2023-02-14T13:54:47.221Z,22.52
2023-02-14T13:57:31.686Z,28.27
2023-02-14T14:00:17.197Z,23.23
2023-02-14T14:02:56.822Z,23.95
2023-02-14T14:05:29.921Z,22.95
2023-02-14T14:08:23.518Z,22.75
2023-02-14T14:10:55.300Z,23.30
2023-02-14T14:13:40.632Z,22.73
2023-02-14T14:16:29.321Z,21.55
2023-02-14T14:19:22.005Z,24.55
2023-02-14T14:22:04.805Z,19.98
2023-02-14T14:24:40.107Z,22.92
2023-02-14T14:27:25.926Z,22.92
2023-02-14T14:30:01.940Z,24.60
2023-02-14T14:32:38.409Z,22.15
2023-02-14T14:35:13.471Z,23.45
2023-02-14T14:37:51.157Z,24.00
2023-02-14T14:40:31.433Z,22.65
2023-02-14T14:43:32.980Z,21.05
2023-02-14T14:46:02.647Z,22.63
2023-02-14T14:48:40.929Z,24.15
2023-02-14T14:51:17.393Z,22.90
2023-02-14T14:53:52.760Z,21.52
2023-02-14T14:56:24.288Z,21.38
2023-02-14T14:58:51.736Z,23.17
2023-02-14T15:01:51.649Z,22.25
2023-02-14T15:04:20.074Z,24.92
2023-02-14T15:06:47.764Z,19.75
2023-02-14T15:09:31.802Z,24.88
2023-02-14T15:12:20.615Z,22.73
2023-02-14T15:14:54.747Z,24.20
2023-02-14T15:17:28.514Z,22.60
2023-02-14T15:20:01.547Z,22.27
2023-02-14T15:22:40.899Z,23.27
2023-02-14T15:25:11.336Z,25.35
2023-02-14T15:27:41.867Z,24.10
2023-02-14T15:30:34.251Z,23.90
2023-02-14T15:33:06.149Z,22.42
2023-02-14T15:35:35.849Z,25.88
2023-02-14T15:38:06.073Z,26.75
2023-02-14T15:40:35.308Z,26.80
2023-02-14T15:43:33.664Z,22.65
2023-02-14T15:46:28.386Z,25.67
2023-02-14T15:48:58.523Z,32.38
2023-02-14T15:51:31.825Z,26.83
2023-02-14T15:54:05.905Z,23.73
2023-02-14T15:56:41.840Z,25.63
2023-02-14T15:59:21.524Z,26.27
2023-02-14T16:01:52.676Z,23.23
2023-02-14T16:04:26.078Z,25.48
2023-02-14T16:07:23.339Z,22.70
2023-02-14T16:09:51.913Z,23.33
2023-02-14T16:12:31.194Z,27.33
2023-02-14T16:15:22.695Z,30.67
2023-02-14T16:17:49.806Z,27.33
2023-02-14T16:20:29.151Z,46.38
2023-02-14T16:23:14.298Z,26.70
2023-02-14T16:25:42.079Z,24.10
2023-02-14T16:28:09.020Z,25.42
2023-02-14T16:30:38.727Z,25.83
2023-02-14T16:36:26.171Z,27.33
2023-02-14T16:38:53.994Z,26.20
2023-02-14T16:41:24.691Z,32.72
2023-02-14T16:43:52.553Z,23.10
2023-02-14T16:46:26.453Z,24.02
2023-02-14T16:48:53.652Z,25.17
2023-02-14T16:51:23.150Z,70.93
2023-02-14T16:53:50.777Z,29.35
2023-02-14T16:56:26.100Z,37.42
2023-02-14T16:58:53.233Z,28.70
2023-02-14T17:01:20.285Z,28.65
2023-02-14T17:03:47.694Z,33.28
2023-02-14T17:06:19.270Z,27.85
2023-02-14T17:08:47.688Z,25.40
2023-02-14T17:11:15.346Z,25.65
2023-02-14T17:13:45.053Z,25.77
2023-02-14T17:16:15.650Z,26.65
2023-02-14T17:18:47.689Z,25.38
2023-02-14T17:21:16.434Z,26.80
2023-02-14T17:23:43.370Z,25.55
2023-02-14T17:26:11.322Z,25.17
2023-02-14T17:28:38.475Z,33.35
2023-02-14T17:31:06.187Z,25.35
2023-02-14T17:33:34.081Z,25.88
2023-02-14T17:36:11.922Z,26.50
2023-02-14T17:38:40.218Z,22.35
2023-02-14T17:41:24.303Z,27.23
2023-02-14T17:44:00.195Z,31.75
2023-02-14T17:46:28.945Z,25.17
2023-02-14T17:48:56.762Z,30.05
2023-02-14T17:51:24.453Z,29.48
2023-02-14T17:53:51.659Z,29.73
2023-02-14T17:56:22.677Z,37.97
2023-02-14T17:58:51.748Z,35.25
2023-02-14T18:01:25.405Z,34.85
2023-02-14T18:03:54.816Z,23.08
2023-02-14T18:06:22.028Z,30.85
2023-02-14T18:08:50.551Z,28.08
2023-02-14T18:11:19.912Z,23.95
2023-02-14T18:13:47.225Z,31.20
2023-02-14T18:16:17.551Z,34.33
2023-02-14T18:18:45.452Z,30.67
2023-02-14T18:21:14.769Z,24.90
2023-02-14T18:26:14.012Z,26.23
2023-02-14T18:28:41.182Z,32.13
2023-02-14T18:31:11.299Z,27.73
2023-02-14T18:33:38.991Z,28.83
2023-02-14T18:36:14.578Z,24.48
2023-02-14T18:38:43.626Z,24.42
2023-02-14T18:41:15.779Z,22.45
2023-02-14T18:43:43.976Z,26.88
2023-02-14T18:46:14.170Z,27.73
2023-02-14T18:48:41.656Z,28.00
2023-02-14T18:51:18.170Z,23.85
2023-02-14T18:53:47.072Z,23.80
2023-02-14T18:56:16.349Z,26.52
2023-02-14T19:01:18.055Z,24.77
2023-02-14T19:03:46.852Z,24.65
2023-02-14T19:06:13.911Z,25.02
2023-02-14T19:08:41.774Z,26.30
2023-02-14T19:11:13.999Z,28.33
2023-02-14T19:13:46.066Z,25.73
2023-02-14T19:16:16.748Z,26.98
2023-02-14T19:18:43.910Z,26.85
2023-02-14T19:21:16.204Z,26.67
2023-02-14T19:23:43.806Z,31.63
2023-02-14T19:26:22.157Z,31.75
2023-02-14T19:28:54.733Z,31.42
2023-02-14T19:31:22.212Z,31.60
2023-02-14T19:33:49.365Z,28.85
2023-02-14T19:36:19.079Z,31.08
2023-02-14T19:38:49.392Z,35.20
2023-02-14T19:41:16.767Z,33.75
2023-02-14T19:43:47.822Z,32.95
2023-02-14T19:46:17.039Z,33.38
2023-02-14T19:48:44.725Z,27.85
2023-02-14T19:51:17.649Z,26.35
2023-02-14T19:53:44.634Z,29.92
2023-02-14T19:56:12.696Z,31.48
2023-02-14T19:58:41.001Z,30.60
2023-02-14T20:01:22.306Z,29.25
2023-02-14T20:03:49.413Z,28.13
2023-02-14T20:06:16.274Z,30.30
2023-02-14T20:08:43.528Z,32.38
2023-02-14T20:11:35.997Z,31.80
2023-02-14T20:14:04.915Z,33.30
2023-02-14T20:16:34.188Z,38.40
2023-02-14T20:19:02.641Z,34.25
2023-02-14T20:21:29.659Z,34.77
2023-02-14T20:24:01.580Z,32.03
2023-02-14T20:26:31.413Z,33.92
2023-02-14T20:28:59.280Z,34.95
2023-02-14T20:31:26.327Z,35.47
2023-02-14T20:33:53.286Z,34.60
2023-02-14T20:36:20.562Z,33.83
2023-02-14T20:38:53.604Z,38.53
2023-02-14T20:41:21.076Z,34.13
2023-02-14T20:43:48.011Z,36.65
2023-02-14T20:46:15.017Z,34.92
2023-02-14T20:48:42.182Z,36.55
2023-02-14T20:51:17.730Z,32.60
2023-02-14T20:53:45.726Z,36.33
2023-02-14T20:56:14.176Z,37.28
2023-02-14T20:58:41.983Z,36.15
2023-02-14T21:01:10.448Z,41.25
2023-02-14T21:03:37.673Z,37.70
2023-02-14T21:06:06.755Z,38.03
2023-02-14T21:08:34.398Z,39.13
2023-02-14T21:11:01.991Z,40.42
2023-02-14T21:13:30.220Z,39.55
2023-02-14T21:16:05.835Z,37.90
2023-02-14T21:18:34.421Z,39.60
2023-02-14T21:21:06.706Z,39.28
2023-02-14T21:23:33.951Z,34.10
2023-02-14T21:26:00.972Z,43.65
2023-02-14T21:28:27.959Z,38.78
2023-02-14T21:31:05.831Z,39.58
2023-02-14T21:33:34.760Z,42.72
2023-02-14T21:36:16.128Z,41.85
2023-02-14T21:38:44.173Z,41.20
2023-02-14T21:41:14.407Z,40.50
2023-02-14T21:43:44.526Z,42.97
2023-02-14T21:46:16.016Z,41.15
2023-02-14T21:49:02.909Z,38.90
2023-02-14T21:51:31.738Z,41.13
2023-02-14T21:54:01.870Z,46.05
2023-02-14T21:56:28.943Z,42.63
2023-02-14T21:58:56.079Z,44.05
2023-02-14T22:01:25.738Z,42.03
2023-02-14T22:03:54.015Z,39.72
2023-02-14T22:06:21.618Z,41.65
2023-02-14T22:08:57.312Z,41.92
2023-02-14T22:11:26.685Z,41.13
2023-02-14T22:13:53.722Z,41.13
2023-02-14T22:16:22.293Z,43.40
2023-02-14T22:18:49.470Z,41.78
2023-02-14T22:21:20.319Z,41.50
2023-02-14T22:23:48.214Z,46.65
2023-02-14T22:26:26.763Z,47.03
2023-02-14T22:28:59.320Z,46.13
2023-02-14T22:31:28.869Z,46.92
2023-02-14T22:36:23.163Z,47.15
2023-02-14T22:38:50.219Z,46.60
2023-02-14T22:41:22.792Z,47.03
2023-02-14T22:43:50.772Z,51.97
2023-02-14T22:46:24.881Z,46.55
2023-02-14T22:48:53.497Z,55.20
2023-02-14T22:51:22.104Z,49.58
2023-02-14T22:53:53.975Z,53.28
2023-02-14T22:56:20.989Z,52.80
2023-02-14T22:58:48.185Z,54.85
2023-02-14T23:01:16.206Z,51.88
2023-02-14T23:03:43.924Z,54.47
2023-02-14T23:06:11.888Z,52.88
2023-02-14T23:08:43.379Z,52.15
2023-02-14T23:11:17.984Z,55.95
2023-02-14T23:14:03.933Z,53.63
2023-02-14T23:16:49.945Z,54.10
2023-02-14T23:19:41.718Z,55.03
2023-02-14T23:22:11.644Z,56.58
2023-02-14T23:24:39.127Z,55.13
2023-02-14T23:27:07.476Z,55.67
2023-02-14T23:29:35.446Z,56.28
2023-02-14T23:32:03.012Z,55.97
2023-02-14T23:34:32.319Z,52.42
2023-02-14T23:36:59.734Z,53.00
2023-02-14T23:39:27.093Z,54.97
2023-02-14T23:41:54.327Z,57.35
2023-02-14T23:44:24.317Z,54.78
2023-02-14T23:46:54.025Z,52.92
2023-02-14T23:49:22.583Z,52.97
2023-02-14T23:51:52.886Z,57.60
2023-02-14T23:54:20.997Z,54.75
2023-02-14T23:56:48.338Z,56.25
2023-02-14T23:59:16.217Z,54.90
